Houston, Texas
Current Conditions -  °F | °C
As of 1:55 PM on Friday 31 Oct 2014 (Local Time) from KMCJ Reporting Station
Clear Clear  
Wind Chill: 75°   Ceiling: Unl
Heat Index: 75°   Visibility: 10mi
Dew Point: 41°   Wind: 7mph
Humidity: 29%   Direction: 320°NW
Pressure: 30.13"   Gusts: 18mph
Location:  29.76°N, 95.37°W
Report Text: KMCJ 311855Z AUTO 32006G16KT 10SM CLR 24/05 A3013 RMK AO1
Loading
Personal Weather Stations






























Interactive Weather Map
Tropical Storm Tracking
New forecast layout! Learn more

10-Day Weather Forecast

Advertisements
Track Severe Weather on mobile